sensor_id;sensor_type;location;lat;lon;timestamp;P1;durP1;ratioP1;P2;durP2;ratioP2
56233;SDS011;42141;53.240;6.580;2023-04-06T00:01:00;9.68;;;5.43;;
56233;SDS011;42141;53.240;6.580;2023-04-06T00:03:25;10.98;;;5.57;;
56233;SDS011;42141;53.240;6.580;2023-04-06T00:05:51;9.75;;;6.25;;
56233;SDS011;42141;53.240;6.580;2023-04-06T00:08:17;7.55;;;5.72;;
56233;SDS011;42141;53.240;6.580;2023-04-06T00:10:43;9.82;;;6.63;;
56233;SDS011;42141;53.240;6.580;2023-04-06T00:13:08;11.07;;;6.40;;
56233;SDS011;42141;53.240;6.580;2023-04-06T00:15:35;11.45;;;6.35;;
56233;SDS011;42141;53.240;6.580;2023-04-06T00:18:01;8.93;;;6.18;;
56233;SDS011;42141;53.240;6.580;2023-04-06T00:20:28;11.07;;;6.05;;
56233;SDS011;42141;53.240;6.580;2023-04-06T00:22:53;10.80;;;7.18;;
56233;SDS011;42141;53.240;6.580;2023-04-06T00:25:19;9.77;;;6.30;;
56233;SDS011;42141;53.240;6.580;2023-04-06T00:27:45;13.02;;;6.18;;
56233;SDS011;42141;53.240;6.580;2023-04-06T00:30:11;9.15;;;6.22;;
56233;SDS011;42141;53.240;6.580;2023-04-06T00:32:37;14.10;;;9.00;;
56233;SDS011;42141;53.240;6.580;2023-04-06T00:35:03;9.70;;;5.72;;
56233;SDS011;42141;53.240;6.580;2023-04-06T00:37:29;12.95;;;6.90;;
56233;SDS011;42141;53.240;6.580;2023-04-06T00:39:55;12.63;;;5.90;;
56233;SDS011;42141;53.240;6.580;2023-04-06T00:42:21;11.98;;;6.68;;
56233;SDS011;42141;53.240;6.580;2023-04-06T00:44:52;9.88;;;6.10;;
56233;SDS011;42141;53.240;6.580;2023-04-06T00:47:19;10.18;;;6.80;;
56233;SDS011;42141;53.240;6.580;2023-04-06T00:49:46;9.38;;;6.30;;
56233;SDS011;42141;53.240;6.580;2023-04-06T00:52:12;11.80;;;6.13;;
56233;SDS011;42141;53.240;6.580;2023-04-06T00:54:37;10.15;;;6.72;;
56233;SDS011;42141;53.240;6.580;2023-04-06T00:57:03;12.35;;;7.07;;
56233;SDS011;42141;53.240;6.580;2023-04-06T00:59:29;9.48;;;6.28;;
56233;SDS011;42141;53.240;6.580;2023-04-06T01:01:55;10.05;;;6.60;;
56233;SDS011;42141;53.240;6.580;2023-04-06T01:04:21;11.95;;;5.90;;
56233;SDS011;42141;53.240;6.580;2023-04-06T01:06:50;12.20;;;6.82;;
56233;SDS011;42141;53.240;6.580;2023-04-06T01:09:16;11.85;;;7.00;;
56233;SDS011;42141;53.240;6.580;2023-04-06T01:11:42;9.93;;;6.47;;
56233;SDS011;42141;53.240;6.580;2023-04-06T01:14:08;10.18;;;7.65;;
56233;SDS011;42141;53.240;6.580;2023-04-06T01:16:34;14.32;;;7.80;;
56233;SDS011;42141;53.240;6.580;2023-04-06T01:19:00;10.82;;;7.07;;
56233;SDS011;42141;53.240;6.580;2023-04-06T01:21:26;12.82;;;6.78;;
56233;SDS011;42141;53.240;6.580;2023-04-06T01:23:52;13.70;;;7.80;;
56233;SDS011;42141;53.240;6.580;2023-04-06T01:26:18;10.32;;;6.57;;
56233;SDS011;42141;53.240;6.580;2023-04-06T01:28:44;14.93;;;7.45;;
56233;SDS011;42141;53.240;6.580;2023-04-06T01:31:10;11.57;;;6.82;;
56233;SDS011;42141;53.240;6.580;2023-04-06T01:33:35;17.00;;;8.50;;
56233;SDS011;42141;53.240;6.580;2023-04-06T01:36:02;11.40;;;6.80;;
56233;SDS011;42141;53.240;6.580;2023-04-06T01:38:28;11.68;;;7.47;;
56233;SDS011;42141;53.240;6.580;2023-04-06T01:40:54;17.00;;;7.60;;
56233;SDS011;42141;53.240;6.580;2023-04-06T01:43:20;12.27;;;6.82;;
56233;SDS011;42141;53.240;6.580;2023-04-06T01:45:46;15.35;;;7.80;;
56233;SDS011;42141;53.240;6.580;2023-04-06T01:48:12;12.25;;;7.05;;
56233;SDS011;42141;53.240;6.580;2023-04-06T01:50:37;13.02;;;7.82;;
56233;SDS011;42141;53.240;6.580;2023-04-06T01:53:03;12.05;;;7.47;;
56233;SDS011;42141;53.240;6.580;2023-04-06T01:55:29;11.82;;;7.28;;
56233;SDS011;42141;53.240;6.580;2023-04-06T01:57:54;11.85;;;7.70;;
56233;SDS011;42141;53.240;6.580;2023-04-06T02:00:20;15.55;;;7.97;;
56233;SDS011;42141;53.240;6.580;2023-04-06T02:02:46;12.20;;;7.40;;
56233;SDS011;42141;53.240;6.580;2023-04-06T02:05:12;12.73;;;7.68;;
56233;SDS011;42141;53.240;6.580;2023-04-06T02:07:37;11.13;;;8.13;;
56233;SDS011;42141;53.240;6.580;2023-04-06T02:10:03;13.68;;;8.07;;
56233;SDS011;42141;53.240;6.580;2023-04-06T02:12:29;17.33;;;8.70;;
56233;SDS011;42141;53.240;6.580;2023-04-06T02:14:55;14.85;;;8.23;;
56233;SDS011;42141;53.240;6.580;2023-04-06T02:17:21;13.60;;;7.90;;
56233;SDS011;42141;53.240;6.580;2023-04-06T02:19:46;16.02;;;7.97;;
56233;SDS011;42141;53.240;6.580;2023-04-06T02:22:12;15.32;;;8.23;;
56233;SDS011;42141;53.240;6.580;2023-04-06T02:24:38;13.30;;;8.52;;
56233;SDS011;42141;53.240;6.580;2023-04-06T02:27:04;12.60;;;8.05;;
56233;SDS011;42141;53.240;6.580;2023-04-06T02:29:30;12.60;;;8.23;;
56233;SDS011;42141;53.240;6.580;2023-04-06T02:31:55;15.02;;;8.57;;
56233;SDS011;42141;53.240;6.580;2023-04-06T02:34:21;13.90;;;7.82;;
56233;SDS011;42141;53.240;6.580;2023-04-06T02:36:47;13.88;;;9.38;;
56233;SDS011;42141;53.240;6.580;2023-04-06T02:39:13;11.85;;;7.97;;
56233;SDS011;42141;53.240;6.580;2023-04-06T02:41:39;14.80;;;8.35;;
56233;SDS011;42141;53.240;6.580;2023-04-06T02:44:08;15.40;;;8.20;;
56233;SDS011;42141;53.240;6.580;2023-04-06T02:46:34;11.60;;;7.60;;
56233;SDS011;42141;53.240;6.580;2023-04-06T02:49:00;11.70;;;8.50;;
56233;SDS011;42141;53.240;6.580;2023-04-06T02:51:29;14.43;;;7.97;;
56233;SDS011;42141;53.240;6.580;2023-04-06T02:53:54;13.68;;;7.78;;
56233;SDS011;42141;53.240;6.580;2023-04-06T02:56:20;16.38;;;7.82;;
56233;SDS011;42141;53.240;6.580;2023-04-06T02:58:46;13.15;;;7.75;;
56233;SDS011;42141;53.240;6.580;2023-04-06T03:01:12;11.15;;;7.57;;
56233;SDS011;42141;53.240;6.580;2023-04-06T03:03:38;12.50;;;7.82;;
56233;SDS011;42141;53.240;6.580;2023-04-06T03:06:04;12.73;;;7.65;;
56233;SDS011;42141;53.240;6.580;2023-04-06T03:08:30;13.75;;;8.45;;
56233;SDS011;42141;53.240;6.580;2023-04-06T03:10:55;10.48;;;6.95;;
56233;SDS011;42141;53.240;6.580;2023-04-06T03:13:21;11.45;;;7.80;;
56233;SDS011;42141;53.240;6.580;2023-04-06T03:15:47;12.15;;;7.72;;
56233;SDS011;42141;53.240;6.580;2023-04-06T03:18:12;14.52;;;7.95;;
56233;SDS011;42141;53.240;6.580;2023-04-06T03:20:38;12.45;;;7.28;;
56233;SDS011;42141;53.240;6.580;2023-04-06T03:23:04;11.82;;;8.77;;
56233;SDS011;42141;53.240;6.580;2023-04-06T03:25:30;13.73;;;7.93;;
56233;SDS011;42141;53.240;6.580;2023-04-06T03:27:56;14.25;;;8.15;;
56233;SDS011;42141;53.240;6.580;2023-04-06T03:30:22;16.08;;;8.10;;
56233;SDS011;42141;53.240;6.580;2023-04-06T03:32:48;11.15;;;7.75;;
56233;SDS011;42141;53.240;6.580;2023-04-06T03:35:13;13.70;;;8.13;;
56233;SDS011;42141;53.240;6.580;2023-04-06T03:37:39;13.77;;;7.85;;
56233;SDS011;42141;53.240;6.580;2023-04-06T03:40:05;12.57;;;7.72;;
56233;SDS011;42141;53.240;6.580;2023-04-06T03:42:31;15.38;;;8.05;;
56233;SDS011;42141;53.240;6.580;2023-04-06T03:44:58;15.07;;;8.15;;
56233;SDS011;42141;53.240;6.580;2023-04-06T03:47:24;10.95;;;7.07;;
56233;SDS011;42141;53.240;6.580;2023-04-06T03:49:50;18.30;;;7.50;;
56233;SDS011;42141;53.240;6.580;2023-04-06T03:52:16;14.15;;;7.78;;
56233;SDS011;42141;53.240;6.580;2023-04-06T03:54:43;12.52;;;8.25;;
56233;SDS011;42141;53.240;6.580;2023-04-06T03:57:08;15.50;;;8.68;;
56233;SDS011;42141;53.240;6.580;2023-04-06T03:59:34;15.35;;;7.55;;
56233;SDS011;42141;53.240;6.580;2023-04-06T04:02:00;13.63;;;7.40;;
56233;SDS011;42141;53.240;6.580;2023-04-06T04:04:26;10.68;;;7.45;;
56233;SDS011;42141;53.240;6.580;2023-04-06T04:06:51;12.50;;;7.65;;
56233;SDS011;42141;53.240;6.580;2023-04-06T04:09:17;11.57;;;7.55;;
56233;SDS011;42141;53.240;6.580;2023-04-06T04:11:43;11.80;;;7.35;;
56233;SDS011;42141;53.240;6.580;2023-04-06T04:14:08;14.90;;;9.02;;
56233;SDS011;42141;53.240;6.580;2023-04-06T04:16:34;10.55;;;7.25;;
56233;SDS011;42141;53.240;6.580;2023-04-06T04:19:00;11.45;;;7.72;;
56233;SDS011;42141;53.240;6.580;2023-04-06T04:21:28;12.07;;;8.27;;
56233;SDS011;42141;53.240;6.580;2023-04-06T04:23:55;17.25;;;9.05;;
56233;SDS011;42141;53.240;6.580;2023-04-06T04:26:21;12.40;;;7.93;;
56233;SDS011;42141;53.240;6.580;2023-04-06T04:28:47;11.30;;;8.00;;
56233;SDS011;42141;53.240;6.580;2023-04-06T04:31:13;9.05;;;6.90;;
56233;SDS011;42141;53.240;6.580;2023-04-06T04:33:38;12.23;;;8.35;;
56233;SDS011;42141;53.240;6.580;2023-04-06T04:36:04;11.27;;;7.32;;
56233;SDS011;42141;53.240;6.580;2023-04-06T04:38:30;12.35;;;7.30;;
56233;SDS011;42141;53.240;6.580;2023-04-06T04:40:56;14.55;;;9.50;;
56233;SDS011;42141;53.240;6.580;2023-04-06T04:43:21;11.05;;;7.85;;
56233;SDS011;42141;53.240;6.580;2023-04-06T04:45:47;12.55;;;7.95;;
56233;SDS011;42141;53.240;6.580;2023-04-06T04:48:13;15.65;;;8.63;;
56233;SDS011;42141;53.240;6.580;2023-04-06T04:50:39;9.80;;;7.15;;
56233;SDS011;42141;53.240;6.580;2023-04-06T04:53:05;12.93;;;7.40;;
56233;SDS011;42141;53.240;6.580;2023-04-06T04:55:31;15.05;;;7.55;;
56233;SDS011;42141;53.240;6.580;2023-04-06T04:57:57;14.00;;;7.32;;
56233;SDS011;42141;53.240;6.580;2023-04-06T05:00:23;12.65;;;7.72;;
56233;SDS011;42141;53.240;6.580;2023-04-06T05:02:49;10.73;;;7.10;;
56233;SDS011;42141;53.240;6.580;2023-04-06T05:05:14;10.02;;;6.82;;
56233;SDS011;42141;53.240;6.580;2023-04-06T05:07:40;15.52;;;7.63;;
56233;SDS011;42141;53.240;6.580;2023-04-06T05:10:06;10.77;;;7.10;;
56233;SDS011;42141;53.240;6.580;2023-04-06T05:12:32;16.58;;;7.03;;
56233;SDS011;42141;53.240;6.580;2023-04-06T05:14:58;14.32;;;7.88;;
56233;SDS011;42141;53.240;6.580;2023-04-06T05:17:24;13.75;;;7.03;;
56233;SDS011;42141;53.240;6.580;2023-04-06T05:19:50;12.85;;;7.43;;
56233;SDS011;42141;53.240;6.580;2023-04-06T05:22:16;14.65;;;7.65;;
56233;SDS011;42141;53.240;6.580;2023-04-06T05:24:43;11.60;;;7.20;;
56233;SDS011;42141;53.240;6.580;2023-04-06T05:27:08;14.45;;;6.93;;
56233;SDS011;42141;53.240;6.580;2023-04-06T05:29:34;17.80;;;10.07;;
56233;SDS011;42141;53.240;6.580;2023-04-06T05:32:00;10.63;;;6.75;;
56233;SDS011;42141;53.240;6.580;2023-04-06T05:34:26;13.05;;;6.47;;
56233;SDS011;42141;53.240;6.580;2023-04-06T05:36:52;9.32;;;6.18;;
56233;SDS011;42141;53.240;6.580;2023-04-06T05:39:18;10.18;;;6.35;;
56233;SDS011;42141;53.240;6.580;2023-04-06T05:41:44;10.45;;;6.78;;
56233;SDS011;42141;53.240;6.580;2023-04-06T05:44:10;17.45;;;6.28;;
56233;SDS011;42141;53.240;6.580;2023-04-06T05:46:36;10.70;;;6.10;;
56233;SDS011;42141;53.240;6.580;2023-04-06T05:49:01;12.27;;;6.80;;
56233;SDS011;42141;53.240;6.580;2023-04-06T05:51:27;9.60;;;6.28;;
56233;SDS011;42141;53.240;6.580;2023-04-06T05:53:53;15.65;;;6.50;;
56233;SDS011;42141;53.240;6.580;2023-04-06T05:56:18;7.65;;;5.72;;
56233;SDS011;42141;53.240;6.580;2023-04-06T05:58:44;15.55;;;6.05;;
56233;SDS011;42141;53.240;6.580;2023-04-06T06:01:10;9.75;;;6.28;;
56233;SDS011;42141;53.240;6.580;2023-04-06T06:03:36;14.00;;;6.15;;
56233;SDS011;42141;53.240;6.580;2023-04-06T06:06:02;17.00;;;6.95;;
56233;SDS011;42141;53.240;6.580;2023-04-06T06:08:29;13.25;;;6.55;;
56233;SDS011;42141;53.240;6.580;2023-04-06T06:10:55;11.23;;;7.22;;
56233;SDS011;42141;53.240;6.580;2023-04-06T06:13:21;10.07;;;5.78;;
56233;SDS011;42141;53.240;6.580;2023-04-06T06:15:48;10.15;;;6.78;;
56233;SDS011;42141;53.240;6.580;2023-04-06T06:18:14;10.55;;;6.43;;
56233;SDS011;42141;53.240;6.580;2023-04-06T06:20:40;9.65;;;7.03;;
56233;SDS011;42141;53.240;6.580;2023-04-06T06:23:06;14.15;;;6.28;;
56233;SDS011;42141;53.240;6.580;2023-04-06T06:25:32;12.60;;;6.47;;
56233;SDS011;42141;53.240;6.580;2023-04-06T06:27:58;8.75;;;6.47;;
56233;SDS011;42141;53.240;6.580;2023-04-06T06:30:24;11.82;;;6.72;;
56233;SDS011;42141;53.240;6.580;2023-04-06T06:32:51;10.48;;;6.63;;
56233;SDS011;42141;53.240;6.580;2023-04-06T06:35:17;12.68;;;6.68;;
56233;SDS011;42141;53.240;6.580;2023-04-06T06:37:43;8.90;;;6.03;;
56233;SDS011;42141;53.240;6.580;2023-04-06T06:40:09;8.65;;;6.05;;
56233;SDS011;42141;53.240;6.580;2023-04-06T06:42:38;10.98;;;6.45;;
56233;SDS011;42141;53.240;6.580;2023-04-06T06:45:05;8.15;;;5.85;;
56233;SDS011;42141;53.240;6.580;2023-04-06T06:47:32;17.42;;;8.75;;
56233;SDS011;42141;53.240;6.580;2023-04-06T06:49:57;10.82;;;6.97;;
56233;SDS011;42141;53.240;6.580;2023-04-06T06:52:23;18.05;;;6.65;;
56233;SDS011;42141;53.240;6.580;2023-04-06T06:54:49;9.40;;;6.38;;
56233;SDS011;42141;53.240;6.580;2023-04-06T06:57:15;12.10;;;6.68;;
56233;SDS011;42141;53.240;6.580;2023-04-06T06:59:41;13.30;;;6.88;;
56233;SDS011;42141;53.240;6.580;2023-04-06T07:02:06;15.18;;;6.50;;
56233;SDS011;42141;53.240;6.580;2023-04-06T07:04:32;13.98;;;7.18;;
56233;SDS011;42141;53.240;6.580;2023-04-06T07:06:58;11.80;;;6.30;;
56233;SDS011;42141;53.240;6.580;2023-04-06T07:09:23;12.23;;;6.32;;
56233;SDS011;42141;53.240;6.580;2023-04-06T07:11:51;13.23;;;6.15;;
56233;SDS011;42141;53.240;6.580;2023-04-06T07:14:16;16.73;;;7.82;;
56233;SDS011;42141;53.240;6.580;2023-04-06T07:16:42;14.90;;;6.53;;
56233;SDS011;42141;53.240;6.580;2023-04-06T07:19:10;10.80;;;7.03;;
56233;SDS011;42141;53.240;6.580;2023-04-06T07:21:36;14.45;;;7.05;;
56233;SDS011;42141;53.240;6.580;2023-04-06T07:24:01;12.82;;;6.63;;
56233;SDS011;42141;53.240;6.580;2023-04-06T07:26:27;13.23;;;5.97;;
56233;SDS011;42141;53.240;6.580;2023-04-06T07:28:53;12.75;;;6.50;;
56233;SDS011;42141;53.240;6.580;2023-04-06T07:31:19;11.48;;;7.03;;
56233;SDS011;42141;53.240;6.580;2023-04-06T07:33:45;8.75;;;5.68;;
56233;SDS011;42141;53.240;6.580;2023-04-06T07:36:12;11.18;;;6.57;;
56233;SDS011;42141;53.240;6.580;2023-04-06T07:38:37;13.05;;;6.55;;
56233;SDS011;42141;53.240;6.580;2023-04-06T07:41:03;9.40;;;6.35;;
56233;SDS011;42141;53.240;6.580;2023-04-06T07:43:29;9.77;;;6.10;;
56233;SDS011;42141;53.240;6.580;2023-04-06T07:45:55;11.85;;;6.53;;
56233;SDS011;42141;53.240;6.580;2023-04-06T07:48:22;11.27;;;6.18;;
56233;SDS011;42141;53.240;6.580;2023-04-06T07:50:48;12.35;;;6.10;;
56233;SDS011;42141;53.240;6.580;2023-04-06T07:53:14;14.30;;;6.57;;
56233;SDS011;42141;53.240;6.580;2023-04-06T07:55:40;10.88;;;6.80;;
56233;SDS011;42141;53.240;6.580;2023-04-06T07:58:06;9.77;;;6.65;;
56233;SDS011;42141;53.240;6.580;2023-04-06T08:00:32;9.98;;;6.10;;
56233;SDS011;42141;53.240;6.580;2023-04-06T08:02:57;12.20;;;6.40;;
56233;SDS011;42141;53.240;6.580;2023-04-06T08:05:23;9.43;;;6.50;;
56233;SDS011;42141;53.240;6.580;2023-04-06T08:07:49;14.02;;;6.38;;
56233;SDS011;42141;53.240;6.580;2023-04-06T08:10:15;11.40;;;6.40;;
56233;SDS011;42141;53.240;6.580;2023-04-06T08:12:41;16.77;;;6.25;;
56233;SDS011;42141;53.240;6.580;2023-04-06T08:15:06;10.85;;;6.43;;
56233;SDS011;42141;53.240;6.580;2023-04-06T08:17:32;9.85;;;5.90;;
56233;SDS011;42141;53.240;6.580;2023-04-06T08:19:59;11.35;;;6.53;;
56233;SDS011;42141;53.240;6.580;2023-04-06T08:22:25;11.15;;;6.60;;
56233;SDS011;42141;53.240;6.580;2023-04-06T08:24:51;12.95;;;6.25;;
56233;SDS011;42141;53.240;6.580;2023-04-06T08:27:16;10.82;;;6.70;;
56233;SDS011;42141;53.240;6.580;2023-04-06T08:29:42;9.77;;;5.68;;
56233;SDS011;42141;53.240;6.580;2023-04-06T08:32:08;10.45;;;6.75;;
56233;SDS011;42141;53.240;6.580;2023-04-06T08:34:34;12.30;;;6.00;;
56233;SDS011;42141;53.240;6.580;2023-04-06T08:37:00;15.07;;;6.88;;
56233;SDS011;42141;53.240;6.580;2023-04-06T08:39:26;8.90;;;6.28;;
56233;SDS011;42141;53.240;6.580;2023-04-06T08:41:53;13.35;;;6.47;;
56233;SDS011;42141;53.240;6.580;2023-04-06T08:44:22;9.20;;;6.57;;
56233;SDS011;42141;53.240;6.580;2023-04-06T08:46:48;11.43;;;6.68;;
56233;SDS011;42141;53.240;6.580;2023-04-06T08:49:15;11.15;;;7.07;;
56233;SDS011;42141;53.240;6.580;2023-04-06T08:51:41;9.70;;;6.88;;
56233;SDS011;42141;53.240;6.580;2023-04-06T08:54:07;9.95;;;5.93;;
56233;SDS011;42141;53.240;6.580;2023-04-06T08:56:35;12.88;;;6.47;;
56233;SDS011;42141;53.240;6.580;2023-04-06T08:59:03;15.70;;;7.13;;
56233;SDS011;42141;53.240;6.580;2023-04-06T09:01:31;12.23;;;7.55;;
56233;SDS011;42141;53.240;6.580;2023-04-06T09:04:03;8.25;;;6.22;;
56233;SDS011;42141;53.240;6.580;2023-04-06T09:06:34;12.23;;;6.72;;
56233;SDS011;42141;53.240;6.580;2023-04-06T09:09:01;8.73;;;6.28;;
56233;SDS011;42141;53.240;6.580;2023-04-06T09:11:27;10.07;;;6.93;;
56233;SDS011;42141;53.240;6.580;2023-04-06T09:13:54;13.95;;;6.43;;
56233;SDS011;42141;53.240;6.580;2023-04-06T09:16:21;10.27;;;6.22;;
56233;SDS011;42141;53.240;6.580;2023-04-06T09:18:48;12.27;;;6.22;;
56233;SDS011;42141;53.240;6.580;2023-04-06T09:21:16;10.23;;;6.32;;
56233;SDS011;42141;53.240;6.580;2023-04-06T09:23:43;10.43;;;6.30;;
56233;SDS011;42141;53.240;6.580;2023-04-06T09:26:09;9.38;;;6.30;;
56233;SDS011;42141;53.240;6.580;2023-04-06T09:28:46;9.77;;;6.07;;
56233;SDS011;42141;53.240;6.580;2023-04-06T09:31:35;13.65;;;6.13;;
56233;SDS011;42141;53.240;6.580;2023-04-06T09:34:00;8.23;;;5.82;;
56233;SDS011;42141;53.240;6.580;2023-04-06T09:36:34;10.82;;;6.32;;
56233;SDS011;42141;53.240;6.580;2023-04-06T09:39:03;8.48;;;5.80;;
56233;SDS011;42141;53.240;6.580;2023-04-06T09:41:33;11.98;;;6.05;;
56233;SDS011;42141;53.240;6.580;2023-04-06T09:46:33;10.75;;;7.32;;
56233;SDS011;42141;53.240;6.580;2023-04-06T09:49:01;11.30;;;6.78;;
56233;SDS011;42141;53.240;6.580;2023-04-06T09:51:32;9.05;;;6.35;;
56233;SDS011;42141;53.240;6.580;2023-04-06T09:54:02;12.20;;;6.50;;
56233;SDS011;42141;53.240;6.580;2023-04-06T09:59:14;15.52;;;7.00;;
56233;SDS011;42141;53.240;6.580;2023-04-06T10:02:05;11.23;;;7.00;;
56233;SDS011;42141;53.240;6.580;2023-04-06T10:04:45;14.30;;;7.65;;
56233;SDS011;42141;53.240;6.580;2023-04-06T10:07:19;11.27;;;7.20;;
56233;SDS011;42141;53.240;6.580;2023-04-06T10:09:46;12.88;;;6.97;;
56233;SDS011;42141;53.240;6.580;2023-04-06T10:12:12;13.93;;;7.65;;
56233;SDS011;42141;53.240;6.580;2023-04-06T10:14:38;11.25;;;7.47;;
56233;SDS011;42141;53.240;6.580;2023-04-06T10:17:06;11.00;;;7.60;;
56233;SDS011;42141;53.240;6.580;2023-04-06T10:19:34;13.63;;;7.90;;
56233;SDS011;42141;53.240;6.580;2023-04-06T10:22:14;11.73;;;7.45;;
56233;SDS011;42141;53.240;6.580;2023-04-06T10:24:49;11.63;;;7.30;;
56233;SDS011;42141;53.240;6.580;2023-04-06T10:27:14;14.23;;;7.22;;
56233;SDS011;42141;53.240;6.580;2023-04-06T10:29:47;12.07;;;7.32;;
56233;SDS011;42141;53.240;6.580;2023-04-06T10:32:16;13.82;;;7.95;;
56233;SDS011;42141;53.240;6.580;2023-04-06T10:34:42;13.90;;;8.38;;
56233;SDS011;42141;53.240;6.580;2023-04-06T10:37:13;18.52;;;10.48;;
56233;SDS011;42141;53.240;6.580;2023-04-06T10:39:47;15.48;;;9.15;;
56233;SDS011;42141;53.240;6.580;2023-04-06T10:42:25;14.85;;;8.32;;
56233;SDS011;42141;53.240;6.580;2023-04-06T10:45:01;15.88;;;8.55;;
56233;SDS011;42141;53.240;6.580;2023-04-06T10:47:26;17.67;;;9.10;;
56233;SDS011;42141;53.240;6.580;2023-04-06T10:49:52;15.10;;;8.35;;
56233;SDS011;42141;53.240;6.580;2023-04-06T10:52:18;16.27;;;9.27;;
56233;SDS011;42141;53.240;6.580;2023-04-06T10:54:43;17.33;;;9.82;;
56233;SDS011;42141;53.240;6.580;2023-04-06T10:57:10;16.58;;;9.77;;
56233;SDS011;42141;53.240;6.580;2023-04-06T10:59:41;17.63;;;10.25;;
56233;SDS011;42141;53.240;6.580;2023-04-06T11:02:08;14.18;;;9.75;;
56233;SDS011;42141;53.240;6.580;2023-04-06T11:04:34;15.73;;;10.48;;
56233;SDS011;42141;53.240;6.580;2023-04-06T11:06:59;18.20;;;11.13;;
56233;SDS011;42141;53.240;6.580;2023-04-06T11:09:26;16.08;;;9.93;;
56233;SDS011;42141;53.240;6.580;2023-04-06T11:11:53;17.17;;;10.27;;
56233;SDS011;42141;53.240;6.580;2023-04-06T11:14:20;19.05;;;11.20;;
56233;SDS011;42141;53.240;6.580;2023-04-06T11:16:46;20.65;;;13.13;;
56233;SDS011;42141;53.240;6.580;2023-04-06T11:19:15;18.38;;;11.48;;
56233;SDS011;42141;53.240;6.580;2023-04-06T11:21:42;18.80;;;11.20;;
56233;SDS011;42141;53.240;6.580;2023-04-06T11:24:22;21.80;;;11.70;;
56233;SDS011;42141;53.240;6.580;2023-04-06T11:26:49;20.02;;;14.35;;
56233;SDS011;42141;53.240;6.580;2023-04-06T11:29:23;24.88;;;15.50;;
56233;SDS011;42141;53.240;6.580;2023-04-06T11:34:36;23.02;;;17.50;;
56233;SDS011;42141;53.240;6.580;2023-04-06T11:37:04;26.50;;;16.83;;
56233;SDS011;42141;53.240;6.580;2023-04-06T11:39:49;28.48;;;17.80;;
56233;SDS011;42141;53.240;6.580;2023-04-06T11:44:59;27.60;;;17.00;;
56233;SDS011;42141;53.240;6.580;2023-04-06T11:47:29;27.60;;;17.63;;
56233;SDS011;42141;53.240;6.580;2023-04-06T11:49:56;24.42;;;16.13;;
56233;SDS011;42141;53.240;6.580;2023-04-06T11:52:34;25.85;;;16.95;;
56233;SDS011;42141;53.240;6.580;2023-04-06T11:55:09;25.70;;;17.52;;
56233;SDS011;42141;53.240;6.580;2023-04-06T11:57:40;25.52;;;17.17;;
56233;SDS011;42141;53.240;6.580;2023-04-06T12:00:07;26.85;;;16.88;;
56233;SDS011;42141;53.240;6.580;2023-04-06T12:02:34;28.35;;;18.40;;
56233;SDS011;42141;53.240;6.580;2023-04-06T12:05:04;29.92;;;17.90;;
56233;SDS011;42141;53.240;6.580;2023-04-06T12:07:31;26.27;;;17.80;;
56233;SDS011;42141;53.240;6.580;2023-04-06T12:09:58;33.47;;;17.58;;
56233;SDS011;42141;53.240;6.580;2023-04-06T12:12:24;24.40;;;17.23;;
56233;SDS011;42141;53.240;6.580;2023-04-06T12:14:50;25.77;;;17.52;;
56233;SDS011;42141;53.240;6.580;2023-04-06T12:17:18;28.60;;;18.52;;
56233;SDS011;42141;53.240;6.580;2023-04-06T12:19:44;25.92;;;17.35;;
56233;SDS011;42141;53.240;6.580;2023-04-06T12:22:09;27.48;;;16.83;;
56233;SDS011;42141;53.240;6.580;2023-04-06T12:24:35;28.98;;;17.20;;
56233;SDS011;42141;53.240;6.580;2023-04-06T12:27:01;32.20;;;18.65;;
56233;SDS011;42141;53.240;6.580;2023-04-06T12:29:27;30.00;;;17.20;;
56233;SDS011;42141;53.240;6.580;2023-04-06T12:31:53;23.63;;;16.67;;
56233;SDS011;42141;53.240;6.580;2023-04-06T12:34:18;26.70;;;18.33;;
56233;SDS011;42141;53.240;6.580;2023-04-06T12:36:44;28.85;;;16.75;;
56233;SDS011;42141;53.240;6.580;2023-04-06T12:39:10;24.88;;;17.85;;
56233;SDS011;42141;53.240;6.580;2023-04-06T12:41:36;25.92;;;16.17;;
56233;SDS011;42141;53.240;6.580;2023-04-06T12:44:05;24.90;;;18.17;;
56233;SDS011;42141;53.240;6.580;2023-04-06T12:46:31;31.23;;;16.85;;
56233;SDS011;42141;53.240;6.580;2023-04-06T12:48:56;26.92;;;16.35;;
56233;SDS011;42141;53.240;6.580;2023-04-06T12:51:24;25.63;;;17.05;;
56233;SDS011;42141;53.240;6.580;2023-04-06T12:53:53;25.15;;;16.17;;
56233;SDS011;42141;53.240;6.580;2023-04-06T12:56:19;24.27;;;16.23;;
56233;SDS011;42141;53.240;6.580;2023-04-06T12:58:46;22.52;;;16.33;;
56233;SDS011;42141;53.240;6.580;2023-04-06T13:01:12;26.38;;;16.85;;
56233;SDS011;42141;53.240;6.580;2023-04-06T13:03:38;27.48;;;16.98;;
56233;SDS011;42141;53.240;6.580;2023-04-06T13:06:07;25.88;;;16.10;;
56233;SDS011;42141;53.240;6.580;2023-04-06T13:08:33;23.58;;;16.45;;
56233;SDS011;42141;53.240;6.580;2023-04-06T13:11:01;26.38;;;16.88;;
56233;SDS011;42141;53.240;6.580;2023-04-06T13:13:27;24.80;;;16.17;;
56233;SDS011;42141;53.240;6.580;2023-04-06T13:15:54;27.42;;;17.38;;
56233;SDS011;42141;53.240;6.580;2023-04-06T13:18:26;28.10;;;15.48;;
56233;SDS011;42141;53.240;6.580;2023-04-06T13:20:52;27.33;;;17.30;;
56233;SDS011;42141;53.240;6.580;2023-04-06T13:23:17;24.33;;;16.35;;
56233;SDS011;42141;53.240;6.580;2023-04-06T13:25:43;25.52;;;16.48;;
56233;SDS011;42141;53.240;6.580;2023-04-06T13:28:09;27.20;;;16.60;;
56233;SDS011;42141;53.240;6.580;2023-04-06T13:30:35;27.00;;;17.00;;
56233;SDS011;42141;53.240;6.580;2023-04-06T13:33:01;24.35;;;15.57;;
56233;SDS011;42141;53.240;6.580;2023-04-06T13:35:27;23.30;;;16.83;;
56233;SDS011;42141;53.240;6.580;2023-04-06T13:37:53;25.20;;;16.85;;
56233;SDS011;42141;53.240;6.580;2023-04-06T13:40:19;30.05;;;15.77;;
56233;SDS011;42141;53.240;6.580;2023-04-06T13:42:46;30.13;;;16.95;;
56233;SDS011;42141;53.240;6.580;2023-04-06T13:45:12;27.30;;;16.55;;
56233;SDS011;42141;53.240;6.580;2023-04-06T13:47:38;23.30;;;15.45;;
56233;SDS011;42141;53.240;6.580;2023-04-06T13:50:04;32.20;;;17.40;;
56233;SDS011;42141;53.240;6.580;2023-04-06T13:52:30;25.45;;;15.65;;
56233;SDS011;42141;53.240;6.580;2023-04-06T13:54:56;25.90;;;16.25;;
56233;SDS011;42141;53.240;6.580;2023-04-06T13:57:21;25.25;;;15.45;;
56233;SDS011;42141;53.240;6.580;2023-04-06T13:59:47;20.70;;;14.88;;
56233;SDS011;42141;53.240;6.580;2023-04-06T14:02:15;23.63;;;16.90;;
56233;SDS011;42141;53.240;6.580;2023-04-06T14:04:41;23.73;;;14.40;;
56233;SDS011;42141;53.240;6.580;2023-04-06T14:07:07;22.13;;;15.20;;
56233;SDS011;42141;53.240;6.580;2023-04-06T14:09:33;20.20;;;14.50;;
56233;SDS011;42141;53.240;6.580;2023-04-06T14:12:00;23.52;;;14.13;;
56233;SDS011;42141;53.240;6.580;2023-04-06T14:14:26;18.90;;;12.80;;
56233;SDS011;42141;53.240;6.580;2023-04-06T14:16:52;18.45;;;13.10;;
56233;SDS011;42141;53.240;6.580;2023-04-06T14:19:20;21.27;;;12.98;;
56233;SDS011;42141;53.240;6.580;2023-04-06T14:21:47;19.38;;;13.15;;
56233;SDS011;42141;53.240;6.580;2023-04-06T14:24:14;19.15;;;11.43;;
56233;SDS011;42141;53.240;6.580;2023-04-06T14:26:46;18.55;;;12.32;;
56233;SDS011;42141;53.240;6.580;2023-04-06T14:29:20;16.10;;;11.00;;
56233;SDS011;42141;53.240;6.580;2023-04-06T14:31:48;21.67;;;12.07;;
56233;SDS011;42141;53.240;6.580;2023-04-06T14:34:20;19.25;;;13.07;;
56233;SDS011;42141;53.240;6.580;2023-04-06T14:36:54;18.65;;;11.38;;
56233;SDS011;42141;53.240;6.580;2023-04-06T14:39:22;18.60;;;12.52;;
56233;SDS011;42141;53.240;6.580;2023-04-06T14:41:48;25.48;;;11.65;;